sensor_id;sensor_type;location;lat;lon;timestamp;pressure;altitude;pressure_sealevel;temperature;humidity
13767;BME280;47980;48.794;9.176;2022-10-16T00:01:53;98127.81;;;17.11;100.00
13767;BME280;47980;48.794;9.176;2022-10-16T00:04:25;98126.25;;;17.10;100.00
13767;BME280;47980;48.794;9.176;2022-10-16T00:06:56;98121.16;;;16.98;100.00
13767;BME280;47980;48.794;9.176;2022-10-16T00:09:28;98119.94;;;16.92;100.00
13767;BME280;47980;48.794;9.176;2022-10-16T00:12:00;98124.06;;;16.82;100.00
13767;BME280;47980;48.794;9.176;2022-10-16T00:14:31;98116.16;;;16.66;100.00
13767;BME280;47980;48.794;9.176;2022-10-16T00:17:04;98123.34;;;16.58;100.00
13767;BME280;47980;48.794;9.176;2022-10-16T00:19:36;98115.22;;;16.51;100.00
13767;BME280;47980;48.794;9.176;2022-10-16T00:22:08;98115.59;;;16.50;100.00
13767;BME280;47980;48.794;9.176;2022-10-16T00:24:39;98119.34;;;16.45;100.00
13767;BME280;47980;48.794;9.176;2022-10-16T00:27:11;98116.25;;;16.43;100.00
13767;BME280;47980;48.794;9.176;2022-10-16T00:29:43;98119.66;;;16.40;100.00
13767;BME280;47980;48.794;9.176;2022-10-16T00:32:16;98117.41;;;16.42;100.00
13767;BME280;47980;48.794;9.176;2022-10-16T00:34:47;98125.06;;;16.44;100.00
13767;BME280;47980;48.794;9.176;2022-10-16T00:37:19;98131.94;;;16.45;100.00
13767;BME280;47980;48.794;9.176;2022-10-16T00:39:51;98121.66;;;16.47;100.00
13767;BME280;47980;48.794;9.176;2022-10-16T00:42:22;98123.97;;;16.48;100.00
13767;BME280;47980;48.794;9.176;2022-10-16T00:44:56;98126.25;;;16.46;100.00
13767;BME280;47980;48.794;9.176;2022-10-16T00:47:33;98122.38;;;16.44;100.00
13767;BME280;47980;48.794;9.176;2022-10-16T00:50:08;98127.69;;;16.40;100.00
13767;BME280;47980;48.794;9.176;2022-10-16T00:52:44;98127.25;;;16.34;100.00
13767;BME280;47980;48.794;9.176;2022-10-16T00:55:18;98112.63;;;16.28;100.00
13767;BME280;47980;48.794;9.176;2022-10-16T00:57:51;98117.22;;;16.28;100.00
13767;BME280;47980;48.794;9.176;2022-10-16T01:00:26;98122.56;;;16.28;100.00
13767;BME280;47980;48.794;9.176;2022-10-16T01:03:00;98128.34;;;16.33;100.00
13767;BME280;47980;48.794;9.176;2022-10-16T01:05:36;98130.03;;;16.42;100.00
13767;BME280;47980;48.794;9.176;2022-10-16T01:08:13;98141.13;;;16.44;100.00
13767;BME280;47980;48.794;9.176;2022-10-16T01:10:53;98145.09;;;16.53;100.00
13767;BME280;47980;48.794;9.176;2022-10-16T01:13:27;98138.59;;;16.54;100.00
13767;BME280;47980;48.794;9.176;2022-10-16T01:16:07;98135.88;;;16.51;100.00
13767;BME280;47980;48.794;9.176;2022-10-16T01:18:43;98149.97;;;16.48;100.00
13767;BME280;47980;48.794;9.176;2022-10-16T01:21:21;98144.28;;;16.49;100.00
13767;BME280;47980;48.794;9.176;2022-10-16T01:24:01;98142.00;;;16.51;100.00
13767;BME280;47980;48.794;9.176;2022-10-16T01:29:34;98127.84;;;16.51;100.00
13767;BME280;47980;48.794;9.176;2022-10-16T01:32:13;98130.16;;;16.52;100.00
13767;BME280;47980;48.794;9.176;2022-10-16T01:34:50;98146.22;;;16.52;100.00
13767;BME280;47980;48.794;9.176;2022-10-16T01:37:33;98138.63;;;16.58;100.00
13767;BME280;47980;48.794;9.176;2022-10-16T01:40:09;98131.75;;;16.57;100.00
13767;BME280;47980;48.794;9.176;2022-10-16T01:42:45;98129.50;;;16.63;100.00
13767;BME280;47980;48.794;9.176;2022-10-16T01:45:20;98132.56;;;16.61;100.00
13767;BME280;47980;48.794;9.176;2022-10-16T01:47:53;98125.38;;;16.69;100.00
13767;BME280;47980;48.794;9.176;2022-10-16T01:50:26;98135.72;;;16.70;100.00
13767;BME280;47980;48.794;9.176;2022-10-16T01:52:58;98122.31;;;16.67;100.00
13767;BME280;47980;48.794;9.176;2022-10-16T01:55:33;98119.66;;;16.70;100.00
13767;BME280;47980;48.794;9.176;2022-10-16T01:58:07;98120.44;;;16.71;100.00
13767;BME280;47980;48.794;9.176;2022-10-16T02:00:44;98121.97;;;16.72;100.00
13767;BME280;47980;48.794;9.176;2022-10-16T02:03:18;98124.72;;;16.75;100.00
13767;BME280;47980;48.794;9.176;2022-10-16T02:05:53;98123.97;;;16.75;100.00
13767;BME280;47980;48.794;9.176;2022-10-16T02:08:27;98118.94;;;16.73;100.00
13767;BME280;47980;48.794;9.176;2022-10-16T02:11:00;98118.59;;;16.75;100.00
13767;BME280;47980;48.794;9.176;2022-10-16T02:13:35;98114.41;;;16.77;100.00
13767;BME280;47980;48.794;9.176;2022-10-16T02:16:10;98114.78;;;16.76;100.00
13767;BME280;47980;48.794;9.176;2022-10-16T02:18:43;98121.56;;;16.70;100.00
13767;BME280;47980;48.794;9.176;2022-10-16T02:21:21;98122.66;;;16.65;100.00
13767;BME280;47980;48.794;9.176;2022-10-16T02:23:58;98127.66;;;16.67;100.00
13767;BME280;47980;48.794;9.176;2022-10-16T02:26:36;98127.66;;;16.67;100.00
13767;BME280;47980;48.794;9.176;2022-10-16T02:29:15;98134.09;;;16.62;100.00
13767;BME280;47980;48.794;9.176;2022-10-16T02:31:52;98123.84;;;16.68;100.00
13767;BME280;47980;48.794;9.176;2022-10-16T02:34:25;98120.44;;;16.71;100.00
13767;BME280;47980;48.794;9.176;2022-10-16T02:36:59;98117.72;;;16.67;100.00
13767;BME280;47980;48.794;9.176;2022-10-16T02:39:32;98118.16;;;16.73;100.00
13767;BME280;47980;48.794;9.176;2022-10-16T02:42:09;98128.06;;;16.69;100.00
13767;BME280;47980;48.794;9.176;2022-10-16T02:44:41;98116.97;;;16.67;100.00
13767;BME280;47980;48.794;9.176;2022-10-16T02:47:14;98124.63;;;16.68;100.00
13767;BME280;47980;48.794;9.176;2022-10-16T02:49:46;98116.16;;;16.66;100.00
13767;BME280;47980;48.794;9.176;2022-10-16T02:52:18;98129.25;;;16.71;100.00
13767;BME280;47980;48.794;9.176;2022-10-16T02:54:50;98132.28;;;16.70;100.00
13767;BME280;47980;48.794;9.176;2022-10-16T02:57:22;98132.28;;;16.70;100.00
13767;BME280;47980;48.794;9.176;2022-10-16T02:59:53;98142.47;;;16.57;100.00
13767;BME280;47980;48.794;9.176;2022-10-16T03:02:27;98143.09;;;16.47;100.00
13767;BME280;47980;48.794;9.176;2022-10-16T03:04:58;98143.50;;;16.49;100.00
13767;BME280;47980;48.794;9.176;2022-10-16T03:07:32;98135.44;;;16.45;100.00
13767;BME280;47980;48.794;9.176;2022-10-16T03:10:05;98138.44;;;16.44;100.00
13767;BME280;47980;48.794;9.176;2022-10-16T03:12:37;98138.78;;;16.39;100.00
13767;BME280;47980;48.794;9.176;2022-10-16T03:15:09;98137.91;;;16.31;100.00
13767;BME280;47980;48.794;9.176;2022-10-16T03:17:43;98142.56;;;16.37;100.00
13767;BME280;47980;48.794;9.176;2022-10-16T03:20:15;98139.13;;;16.37;100.00
13767;BME280;47980;48.794;9.176;2022-10-16T03:22:47;98143.31;;;16.34;100.00
13767;BME280;47980;48.794;9.176;2022-10-16T03:25:19;98147.06;;;16.30;100.00
13767;BME280;47980;48.794;9.176;2022-10-16T03:27:56;98152.06;;;16.31;100.00
13767;BME280;47980;48.794;9.176;2022-10-16T03:30:31;98146.59;;;16.24;100.00
13767;BME280;47980;48.794;9.176;2022-10-16T03:33:04;98142.00;;;16.25;100.00
13767;BME280;47980;48.794;9.176;2022-10-16T03:35:41;98141.59;;;16.23;100.00
13767;BME280;47980;48.794;9.176;2022-10-16T03:38:16;98149.94;;;16.18;100.00
13767;BME280;47980;48.794;9.176;2022-10-16T03:40:48;98153.34;;;16.15;100.00
13767;BME280;47980;48.794;9.176;2022-10-16T03:43:20;98142.63;;;16.15;100.00
13767;BME280;47980;48.794;9.176;2022-10-16T03:45:52;98137.66;;;16.13;100.00
13767;BME280;47980;48.794;9.176;2022-10-16T03:48:25;98147.22;;;16.14;100.00
13767;BME280;47980;48.794;9.176;2022-10-16T03:50:57;98141.03;;;16.10;100.00
13767;BME280;47980;48.794;9.176;2022-10-16T03:53:28;98139.78;;;16.04;100.00
13767;BME280;47980;48.794;9.176;2022-10-16T03:56:00;98150.16;;;16.05;100.00
13767;BME280;47980;48.794;9.176;2022-10-16T03:58:32;98152.03;;;16.05;100.00
13767;BME280;47980;48.794;9.176;2022-10-16T04:01:04;98150.16;;;16.05;100.00
13767;BME280;47980;48.794;9.176;2022-10-16T04:03:37;98159.78;;;16.10;100.00
13767;BME280;47980;48.794;9.176;2022-10-16T04:06:08;98150.56;;;16.07;100.00
13767;BME280;47980;48.794;9.176;2022-10-16T04:08:42;98151.38;;;16.11;100.00
13767;BME280;47980;48.794;9.176;2022-10-16T04:11:14;98153.66;;;16.09;100.00
13767;BME280;47980;48.794;9.176;2022-10-16T04:13:45;98144.06;;;16.08;100.00
13767;BME280;47980;48.794;9.176;2022-10-16T04:16:17;98143.28;;;16.08;100.00
13767;BME280;47980;48.794;9.176;2022-10-16T04:18:50;98144.47;;;16.10;100.00
13767;BME280;47980;48.794;9.176;2022-10-16T04:21:22;98154.00;;;16.08;100.00
13767;BME280;47980;48.794;9.176;2022-10-16T04:23:53;98150.16;;;16.05;100.00
13767;BME280;47980;48.794;9.176;2022-10-16T04:26:25;98149.34;;;16.05;100.00
13767;BME280;47980;48.794;9.176;2022-10-16T04:28:57;98147.81;;;16.04;100.00
13767;BME280;47980;48.794;9.176;2022-10-16T04:31:29;98147.88;;;16.07;100.00
13767;BME280;47980;48.794;9.176;2022-10-16T04:34:02;98152.09;;;16.08;100.00
13767;BME280;47980;48.794;9.176;2022-10-16T04:36:33;98147.59;;;16.12;100.00
13767;BME280;47980;48.794;9.176;2022-10-16T04:39:05;98149.88;;;16.14;100.00
13767;BME280;47980;48.794;9.176;2022-10-16T04:41:37;98146.84;;;16.16;100.00
13767;BME280;47980;48.794;9.176;2022-10-16T04:44:09;98159.56;;;16.22;100.00
13767;BME280;47980;48.794;9.176;2022-10-16T04:46:40;98162.19;;;16.19;100.00
13767;BME280;47980;48.794;9.176;2022-10-16T04:49:13;98167.25;;;16.24;100.00
13767;BME280;47980;48.794;9.176;2022-10-16T04:51:45;98173.59;;;16.16;100.00
13767;BME280;47980;48.794;9.176;2022-10-16T04:54:17;98173.22;;;16.13;100.00
13767;BME280;47980;48.794;9.176;2022-10-16T04:56:49;98177.75;;;16.09;100.00
13767;BME280;47980;48.794;9.176;2022-10-16T04:59:22;98179.59;;;16.05;100.00
13767;BME280;47980;48.794;9.176;2022-10-16T05:01:54;98179.22;;;16.07;100.00
13767;BME280;47980;48.794;9.176;2022-10-16T05:04:28;98181.06;;;16.03;100.00
13767;BME280;47980;48.794;9.176;2022-10-16T05:06:59;98189.47;;;16.01;100.00
13767;BME280;47980;48.794;9.176;2022-10-16T05:09:31;98191.88;;;16.10;100.00
13767;BME280;47980;48.794;9.176;2022-10-16T05:12:02;98184.63;;;16.10;100.00
13767;BME280;47980;48.794;9.176;2022-10-16T05:14:37;98186.00;;;16.01;100.00
13767;BME280;47980;48.794;9.176;2022-10-16T05:17:09;98186.00;;;16.01;100.00
13767;BME280;47980;48.794;9.176;2022-10-16T05:19:42;98189.94;;;16.07;100.00
13767;BME280;47980;48.794;9.176;2022-10-16T05:22:14;98176.53;;;16.07;100.00
13767;BME280;47980;48.794;9.176;2022-10-16T05:24:46;98183.03;;;16.06;100.00
13767;BME280;47980;48.794;9.176;2022-10-16T05:27:18;98184.19;;;16.08;100.00
13767;BME280;47980;48.794;9.176;2022-10-16T05:29:50;98179.66;;;16.09;100.00
13767;BME280;47980;48.794;9.176;2022-10-16T05:32:22;98176.59;;;16.10;100.00
13767;BME280;47980;48.794;9.176;2022-10-16T05:35:06;98178.84;;;16.08;100.00
13767;BME280;47980;48.794;9.176;2022-10-16T05:37:38;98185.22;;;16.00;100.00
13767;BME280;47980;48.794;9.176;2022-10-16T05:40:11;98183.31;;;16.24;100.00
13767;BME280;47980;48.794;9.176;2022-10-16T05:43:02;98200.75;;;16.14;100.00
13767;BME280;47980;48.794;9.176;2022-10-16T05:45:54;98196.19;;;15.92;100.00
13767;BME280;47980;48.794;9.176;2022-10-16T05:48:26;98196.13;;;15.88;100.00
13767;BME280;47980;48.794;9.176;2022-10-16T05:51:03;98202.50;;;15.80;100.00
13767;BME280;47980;48.794;9.176;2022-10-16T05:53:36;98193.84;;;15.90;100.00
13767;BME280;47980;48.794;9.176;2022-10-16T05:56:10;98195.34;;;15.87;100.00
13767;BME280;47980;48.794;9.176;2022-10-16T05:58:43;98206.88;;;15.92;100.00
13767;BME280;47980;48.794;9.176;2022-10-16T06:01:16;98203.50;;;15.95;100.00
13767;BME280;47980;48.794;9.176;2022-10-16T06:03:49;98209.47;;;16.11;100.00
13767;BME280;47980;48.794;9.176;2022-10-16T06:06:25;98213.41;;;16.17;100.00
13767;BME280;47980;48.794;9.176;2022-10-16T06:08:57;98218.22;;;16.08;100.00
13767;BME280;47980;48.794;9.176;2022-10-16T06:11:32;98216.03;;;16.13;100.00
13767;BME280;47980;48.794;9.176;2022-10-16T06:14:04;98225.25;;;16.16;100.00
13767;BME280;47980;48.794;9.176;2022-10-16T06:16:37;98221.38;;;16.13;100.00
13767;BME280;47980;48.794;9.176;2022-10-16T06:19:09;98226.75;;;16.13;100.00
13767;BME280;47980;48.794;9.176;2022-10-16T06:21:42;98225.38;;;16.23;100.00
13767;BME280;47980;48.794;9.176;2022-10-16T06:24:14;98232.38;;;16.31;100.00
13767;BME280;47980;48.794;9.176;2022-10-16T06:26:45;98235.88;;;16.35;100.00
13767;BME280;47980;48.794;9.176;2022-10-16T06:29:17;98235.63;;;16.44;100.00
13767;BME280;47980;48.794;9.176;2022-10-16T06:31:49;98230.22;;;16.41;100.00
13767;BME280;47980;48.794;9.176;2022-10-16T06:34:21;98233.72;;;16.45;100.00
13767;BME280;47980;48.794;9.176;2022-10-16T06:36:54;98239.53;;;16.50;100.00
13767;BME280;47980;48.794;9.176;2022-10-16T06:39:26;98238.84;;;16.53;100.00
13767;BME280;47980;48.794;9.176;2022-10-16T06:41:57;98235.03;;;16.81;100.00
13767;BME280;47980;48.794;9.176;2022-10-16T06:44:29;98243.69;;;16.71;100.00
13767;BME280;47980;48.794;9.176;2022-10-16T06:47:01;98251.44;;;16.76;100.00
13767;BME280;47980;48.794;9.176;2022-10-16T06:49:33;98258.84;;;16.86;100.00
13767;BME280;47980;48.794;9.176;2022-10-16T06:52:15;98264.75;;;16.99;100.00
13767;BME280;47980;48.794;9.176;2022-10-16T06:54:47;98262.94;;;17.06;100.00
13767;BME280;47980;48.794;9.176;2022-10-16T06:57:22;98267.38;;;16.95;100.00
13767;BME280;47980;48.794;9.176;2022-10-16T06:59:54;98269.34;;;16.98;100.00
13767;BME280;47980;48.794;9.176;2022-10-16T07:02:25;98259.03;;;17.00;100.00
13767;BME280;47980;48.794;9.176;2022-10-16T07:04:57;98264.94;;;17.13;100.00
13767;BME280;47980;48.794;9.176;2022-10-16T07:07:30;98275.78;;;17.24;100.00
13767;BME280;47980;48.794;9.176;2022-10-16T07:10:02;98280.91;;;17.32;100.00
13767;BME280;47980;48.794;9.176;2022-10-16T07:12:34;98282.19;;;17.46;100.00
13767;BME280;47980;48.794;9.176;2022-10-16T07:15:07;98292.81;;;17.69;100.00
13767;BME280;47980;48.794;9.176;2022-10-16T07:17:38;98292.47;;;17.74;100.00
13767;BME280;47980;48.794;9.176;2022-10-16T07:20:10;98302.94;;;17.83;100.00
13767;BME280;47980;48.794;9.176;2022-10-16T07:22:43;98302.22;;;17.86;97.74
13767;BME280;47980;48.794;9.176;2022-10-16T07:25:15;98310.81;;;17.68;100.00
13767;BME280;47980;48.794;9.176;2022-10-16T07:27:49;98314.50;;;17.56;100.00
13767;BME280;47980;48.794;9.176;2022-10-16T07:30:21;98320.25;;;17.55;99.86
13767;BME280;47980;48.794;9.176;2022-10-16T07:33:07;98325.16;;;17.49;100.00
13767;BME280;47980;48.794;9.176;2022-10-16T07:35:50;98325.06;;;17.42;100.00
13767;BME280;47980;48.794;9.176;2022-10-16T07:38:24;98327.56;;;17.28;100.00
13767;BME280;47980;48.794;9.176;2022-10-16T07:40:59;98319.47;;;17.24;100.00
13767;BME280;47980;48.794;9.176;2022-10-16T07:43:31;98311.66;;;17.42;100.00
13767;BME280;47980;48.794;9.176;2022-10-16T07:46:03;98325.09;;;17.46;100.00
13767;BME280;47980;48.794;9.176;2022-10-16T07:48:35;98322.22;;;17.58;100.00
13767;BME280;47980;48.794;9.176;2022-10-16T07:51:18;98326.75;;;17.54;99.93
13767;BME280;47980;48.794;9.176;2022-10-16T07:54:13;98338.00;;;17.67;100.00
13767;BME280;47980;48.794;9.176;2022-10-16T07:56:46;98333.22;;;17.79;100.00
13767;BME280;47980;48.794;9.176;2022-10-16T07:59:24;98333.47;;;17.71;99.44
13767;BME280;47980;48.794;9.176;2022-10-16T08:01:56;98339.13;;;17.96;100.00
13767;BME280;47980;48.794;9.176;2022-10-16T08:04:28;98338.53;;;18.10;99.97
13767;BME280;47980;48.794;9.176;2022-10-16T08:06:59;98341.25;;;18.13;98.29
13767;BME280;47980;48.794;9.176;2022-10-16T08:09:32;98345.44;;;18.11;97.18
13767;BME280;47980;48.794;9.176;2022-10-16T08:12:04;98347.91;;;18.26;97.92
13767;BME280;47980;48.794;9.176;2022-10-16T08:14:35;98339.03;;;18.67;95.39
13767;BME280;47980;48.794;9.176;2022-10-16T08:17:08;98345.31;;;18.78;93.30
13767;BME280;47980;48.794;9.176;2022-10-16T08:19:44;98333.13;;;18.95;92.72
13767;BME280;47980;48.794;9.176;2022-10-16T08:22:16;98337.06;;;19.12;90.31
13767;BME280;47980;48.794;9.176;2022-10-16T08:24:58;98348.69;;;19.27;89.70
13767;BME280;47980;48.794;9.176;2022-10-16T08:27:40;98355.25;;;19.29;89.42
13767;BME280;47980;48.794;9.176;2022-10-16T08:30:15;98355.56;;;19.20;90.08
13767;BME280;47980;48.794;9.176;2022-10-16T08:32:48;98369.91;;;19.46;89.12
13767;BME280;47980;48.794;9.176;2022-10-16T08:35:29;98373.53;;;19.71;85.63
13767;BME280;47980;48.794;9.176;2022-10-16T08:38:02;98369.41;;;19.95;82.19
13767;BME280;47980;48.794;9.176;2022-10-16T08:40:37;98370.91;;;19.89;84.01
13767;BME280;47980;48.794;9.176;2022-10-16T08:43:21;98375.19;;;20.01;81.96
13767;BME280;47980;48.794;9.176;2022-10-16T08:46:13;98372.81;;;19.85;84.14
13767;BME280;47980;48.794;9.176;2022-10-16T08:48:48;98376.25;;;19.79;84.45
13767;BME280;47980;48.794;9.176;2022-10-16T08:51:48;98368.91;;;19.65;84.75
13767;BME280;47980;48.794;9.176;2022-10-16T08:54:26;98368.44;;;19.56;84.09
13767;BME280;47980;48.794;9.176;2022-10-16T08:57:11;98374.31;;;19.68;83.70
13767;BME280;47980;48.794;9.176;2022-10-16T08:59:47;98373.94;;;19.77;84.83
13767;BME280;47980;48.794;9.176;2022-10-16T09:02:35;98380.84;;;19.71;83.06
13767;BME280;47980;48.794;9.176;2022-10-16T09:05:33;98384.00;;;19.87;84.58
13767;BME280;47980;48.794;9.176;2022-10-16T09:08:14;98376.72;;;19.95;83.49
13767;BME280;47980;48.794;9.176;2022-10-16T09:10:57;98372.47;;;19.94;81.95
13767;BME280;47980;48.794;9.176;2022-10-16T09:13:37;98382.09;;;19.91;83.40
13767;BME280;47980;48.794;9.176;2022-10-16T09:16:16;98369.41;;;20.03;83.64
13767;BME280;47980;48.794;9.176;2022-10-16T09:18:55;98359.09;;;20.19;82.21
13767;BME280;47980;48.794;9.176;2022-10-16T09:21:31;98384.13;;;20.27;80.39
13767;BME280;47980;48.794;9.176;2022-10-16T09:24:10;98381.75;;;20.11;82.06
13767;BME280;47980;48.794;9.176;2022-10-16T09:26:43;98388.31;;;20.13;81.81
13767;BME280;47980;48.794;9.176;2022-10-16T09:29:17;98393.28;;;20.11;79.74
13767;BME280;47980;48.794;9.176;2022-10-16T09:31:52;98401.75;;;20.03;82.21
13767;BME280;47980;48.794;9.176;2022-10-16T09:34:30;98402.44;;;19.89;82.51
13767;BME280;47980;48.794;9.176;2022-10-16T09:37:09;98398.25;;;19.99;81.11
13767;BME280;47980;48.794;9.176;2022-10-16T09:39:44;98402.84;;;19.87;82.82
13767;BME280;47980;48.794;9.176;2022-10-16T09:42:17;98400.84;;;19.74;82.79
13767;BME280;47980;48.794;9.176;2022-10-16T09:44:51;98395.09;;;19.79;82.26
13767;BME280;47980;48.794;9.176;2022-10-16T09:47:25;98401.31;;;19.97;82.11
13767;BME280;47980;48.794;9.176;2022-10-16T09:50:00;98395.13;;;19.86;81.65
13767;BME280;47980;48.794;9.176;2022-10-16T09:52:34;98395.91;;;19.83;82.68
13767;BME280;47980;48.794;9.176;2022-10-16T09:55:13;98401.34;;;20.01;81.80
13767;BME280;47980;48.794;9.176;2022-10-16T09:57:49;98401.03;;;20.24;81.77
13767;BME280;47980;48.794;9.176;2022-10-16T10:00:23;98408.06;;;20.57;79.66
13767;BME280;47980;48.794;9.176;2022-10-16T10:02:55;98407.69;;;20.80;79.63
13767;BME280;47980;48.794;9.176;2022-10-16T10:05:28;98411.53;;;20.86;79.07
13767;BME280;47980;48.794;9.176;2022-10-16T10:08:02;98411.56;;;20.93;78.35
13767;BME280;47980;48.794;9.176;2022-10-16T10:10:40;98428.09;;;21.02;77.83
13767;BME280;47980;48.794;9.176;2022-10-16T10:13:17;98418.09;;;21.21;77.31
13767;BME280;47980;48.794;9.176;2022-10-16T10:15:52;98422.72;;;21.34;77.72
13767;BME280;47980;48.794;9.176;2022-10-16T10:18:24;98422.31;;;21.43;74.82
13767;BME280;47980;48.794;9.176;2022-10-16T10:20:57;98422.28;;;21.57;73.37
13767;BME280;47980;48.794;9.176;2022-10-16T10:23:30;98430.03;;;21.30;76.27
13767;BME280;47980;48.794;9.176;2022-10-16T10:26:06;98429.28;;;21.33;74.90
13767;BME280;47980;48.794;9.176;2022-10-16T10:31:26;98420.78;;;21.24;74.67
13767;BME280;47980;48.794;9.176;2022-10-16T10:34:04;98419.19;;;21.62;72.96
13767;BME280;47980;48.794;9.176;2022-10-16T10:36:46;98427.28;;;21.70;72.78
13767;BME280;47980;48.794;9.176;2022-10-16T10:39:27;98424.03;;;22.10;70.52
13767;BME280;47980;48.794;9.176;2022-10-16T10:42:20;98424.06;;;22.00;70.75
13767;BME280;47980;48.794;9.176;2022-10-16T10:45:16;98423.25;;;22.10;71.50
13767;BME280;47980;48.794;9.176;2022-10-16T10:48:03;98422.06;;;22.18;70.64
13767;BME280;47980;48.794;9.176;2022-10-16T10:50:41;98430.44;;;22.45;70.87
13767;BME280;47980;48.794;9.176;2022-10-16T10:53:24;98432.19;;;22.77;69.03
13767;BME280;47980;48.794;9.176;2022-10-16T10:56:03;98432.88;;;22.85;68.16
13767;BME280;47980;48.794;9.176;2022-10-16T11:01:39;98428.28;;;22.78;66.84
13767;BME280;47980;48.794;9.176;2022-10-16T11:04:39;98429.88;;;22.72;66.76
13767;BME280;47980;48.794;9.176;2022-10-16T11:07:20;98423.88;;;22.46;67.59
13767;BME280;47980;48.794;9.176;2022-10-16T11:09:58;98412.63;;;22.51;67.93
13767;BME280;47980;48.794;9.176;2022-10-16T11:12:34;98416.22;;;22.34;67.80
13767;BME280;47980;48.794;9.176;2022-10-16T11:15:12;98416.56;;;22.36;67.92
13767;BME280;47980;48.794;9.176;2022-10-16T11:17:50;98412.41;;;22.21;69.84
13767;BME280;47980;48.794;9.176;2022-10-16T11:20:26;98420.06;;;22.33;67.91
13767;BME280;47980;48.794;9.176;2022-10-16T11:23:02;98411.91;;;22.40;66.97
13767;BME280;47980;48.794;9.176;2022-10-16T11:25:36;98406.84;;;22.49;67.73
13767;BME280;47980;48.794;9.176;2022-10-16T11:28:11;98416.97;;;22.90;66.75
13767;BME280;47980;48.794;9.176;2022-10-16T11:30:45;98409.22;;;22.40;69.26
13767;BME280;47980;48.794;9.176;2022-10-16T11:33:26;98420.09;;;22.26;70.00
13767;BME280;47980;48.794;9.176;2022-10-16T11:36:11;98413.19;;;22.21;68.96
13767;BME280;47980;48.794;9.176;2022-10-16T11:38:49;98413.47;;;22.41;66.23
13767;BME280;47980;48.794;9.176;2022-10-16T11:41:28;98412.47;;;22.73;66.36
13767;BME280;47980;48.794;9.176;2022-10-16T11:44:16;98409.38;;;22.74;66.96
13767;BME280;47980;48.794;9.176;2022-10-16T11:46:55;98401.53;;;22.87;64.39
13767;BME280;47980;48.794;9.176;2022-10-16T11:49:31;98404.63;;;22.93;65.23
13767;BME280;47980;48.794;9.176;2022-10-16T11:52:13;98412.19;;;23.12;62.08
13767;BME280;47980;48.794;9.176;2022-10-16T11:54:51;98403.63;;;23.21;63.69
13767;BME280;47980;48.794;9.176;2022-10-16T11:57:28;98402.97;;;23.06;63.70
13767;BME280;47980;48.794;9.176;2022-10-16T12:00:05;98398.47;;;23.30;64.18
13767;BME280;47980;48.794;9.176;2022-10-16T12:02:49;98400.47;;;23.60;58.70
13767;BME280;47980;48.794;9.176;2022-10-16T12:05:27;98399.50;;;23.43;60.94
13767;BME280;47980;48.794;9.176;2022-10-16T12:08:08;98394.63;;;23.69;59.86
13767;BME280;47980;48.794;9.176;2022-10-16T12:10:43;98397.47;;;23.89;58.63
13767;BME280;47980;48.794;9.176;2022-10-16T12:13:31;98394.88;;;23.78;59.23
13767;BME280;47980;48.794;9.176;2022-10-16T12:16:20;98388.22;;;23.86;59.64
13767;BME280;47980;48.794;9.176;2022-10-16T12:19:10;98389.88;;;23.76;59.19
13767;BME280;47980;48.794;9.176;2022-10-16T12:21:42;98392.69;;;23.66;60.58
13767;BME280;47980;48.794;9.176;2022-10-16T12:24:32;98389.50;;;23.74;58.23
13767;BME280;47980;48.794;9.176;2022-10-16T12:27:05;98392.53;;;23.80;58.88
13767;BME280;47980;48.794;9.176;2022-10-16T12:29:39;98394.19;;;23.70;58.65
13767;BME280;47980;48.794;9.176;2022-10-16T12:32:25;98403.66;;;23.89;59.52
13767;BME280;47980;48.794;9.176;2022-10-16T12:34:59;98407.88;;;23.94;57.83
13767;BME280;47980;48.794;9.176;2022-10-16T12:37:33;98407.44;;;23.61;59.67
13767;BME280;47980;48.794;9.176;2022-10-16T12:40:14;98399.72;;;23.60;60.34
13767;BME280;47980;48.794;9.176;2022-10-16T12:42:46;98392.25;;;23.71;60.73
13767;BME280;47980;48.794;9.176;2022-10-16T12:45:27;98404.78;;;23.58;60.19
13767;BME280;47980;48.794;9.176;2022-10-16T12:48:00;98391.22;;;23.20;61.70
13767;BME280;47980;48.794;9.176;2022-10-16T12:50:34;98401.31;;;23.16;61.26
13767;BME280;47980;48.794;9.176;2022-10-16T12:53:18;98397.56;;;23.44;60.73
13767;BME280;47980;48.794;9.176;2022-10-16T12:56:00;98406.16;;;23.39;61.25
13767;BME280;47980;48.794;9.176;2022-10-16T12:58:56;98409.78;;;23.59;59.64
13767;BME280;47980;48.794;9.176;2022-10-16T13:01:42;98408.34;;;23.51;59.99
13767;BME280;47980;48.794;9.176;2022-10-16T13:04:29;98415.97;;;23.22;60.29
13767;BME280;47980;48.794;9.176;2022-10-16T13:07:18;98418.25;;;23.23;61.68
13767;BME280;47980;48.794;9.176;2022-10-16T13:10:02;98416.22;;;23.35;60.06
13767;BME280;47980;48.794;9.176;2022-10-16T13:12:50;98417.00;;;23.35;59.63
13767;BME280;47980;48.794;9.176;2022-10-16T13:15:33;98416.13;;;23.45;59.45
13767;BME280;47980;48.794;9.176;2022-10-16T13:18:13;98417.19;;;23.55;59.25
13767;BME280;47980;48.794;9.176;2022-10-16T13:20:58;98418.13;;;23.79;58.43
13767;BME280;47980;48.794;9.176;2022-10-16T13:23:36;98414.91;;;23.88;58.03
13767;BME280;47980;48.794;9.176;2022-10-16T13:26:17;98413.50;;;23.76;58.62
13767;BME280;47980;48.794;9.176;2022-10-16T13:28:51;98413.28;;;23.94;58.72
13767;BME280;47980;48.794;9.176;2022-10-16T13:31:24;98411.78;;;23.89;58.96
13767;BME280;47980;48.794;9.176;2022-10-16T13:33:58;98416.47;;;23.85;58.82
13767;BME280;47980;48.794;9.176;2022-10-16T13:36:34;98426.47;;;23.92;58.51
13767;BME280;47980;48.794;9.176;2022-10-16T13:39:12;98423.72;;;23.95;59.17
13767;BME280;47980;48.794;9.176;2022-10-16T13:41:44;98423.31;;;23.97;59.25
13767;BME280;47980;48.794;9.176;2022-10-16T13:44:19;98415.44;;;23.75;60.06
13767;BME280;47980;48.794;9.176;2022-10-16T13:46:58;98419.75;;;24.03;57.75
13767;BME280;47980;48.794;9.176;2022-10-16T13:49:29;98421.13;;;23.85;59.18